aviador You're here:

ETNL Decoded Metar

LAAGE in GERMANY
Report Time2018-05-20 22:20:00
UTC Time2018-05-20 23:20:25
Flight Rules vfr VFR
Wind070° at 06 kt
W.Decomp.*RWY 10: 5.0 kt HW 3.3 kt LCW
W.Rank070° ranks 13
Current wind is below 070° avg. (7.1)
Visibility9999 m
Phenomena:N/A
Clouds:N/A
Expected CloudBase > 1,600 ft AGL from Temp-Dew spread
CeilingNone
Temp09°C (ISA -6)
Dew Point05°C (76% RH)
AAT5.7°C
QNH1026 hPa
Density Alt-876 ft
Elevation131 ft
Report Wrong Elevation
Raw Report
METAR ETNL 202220Z 07006KT 9999 09/05 Q1026 BLU+=

Extra information for ETNL:More info

Metar Taf Metar & Taf Last 4 Metars F.Rules Stats Wind Profile Meteogram Temp Stats Airport Information Weather charts Add Link Nearby VenuesMetar ALERT Operation Metar Decoded Social comments